sensor_id;sensor_type;location;lat;lon;timestamp;noise_LAeq;noise_LA_min;noise_LA_max;noise_LA01;noise_LA95
68279;Laerm;55108;51.790;10.960;2023-02-12T00:02:13;45.96;28.22;57.11;;
68279;Laerm;55108;51.790;10.960;2023-02-12T00:04:39;40.07;29.07;61.70;;
68279;Laerm;55108;51.790;10.960;2023-02-12T00:07:04;59.35;29.61;78.43;;
68279;Laerm;55108;51.790;10.960;2023-02-12T00:09:29;56.14;29.44;74.78;;
68279;Laerm;55108;51.790;10.960;2023-02-12T00:11:54;34.64;28.02;44.95;;
68279;Laerm;55108;51.790;10.960;2023-02-12T00:14:19;59.37;28.51;79.18;;
68279;Laerm;55108;51.790;10.960;2023-02-12T00:16:44;35.39;28.09;54.78;;
68279;Laerm;55108;51.790;10.960;2023-02-12T00:19:09;38.14;31.39;54.82;;
68279;Laerm;55108;51.790;10.960;2023-02-12T00:21:34;53.72;28.15;69.67;;
68279;Laerm;55108;51.790;10.960;2023-02-12T00:24:00;32.63;27.86;45.02;;
68279;Laerm;55108;51.790;10.960;2023-02-12T00:26:25;56.04;28.07;74.17;;
68279;Laerm;55108;51.790;10.960;2023-02-12T00:28:50;45.65;29.02;67.51;;
68279;Laerm;55108;51.790;10.960;2023-02-12T00:31:17;50.68;27.94;67.39;;
68279;Laerm;55108;51.790;10.960;2023-02-12T00:33:42;33.97;28.30;43.59;;
68279;Laerm;55108;51.790;10.960;2023-02-12T00:36:08;29.98;27.35;38.17;;
68279;Laerm;55108;51.790;10.960;2023-02-12T00:38:34;33.85;27.43;51.53;;
68279;Laerm;55108;51.790;10.960;2023-02-12T00:40:59;56.55;28.08;73.91;;
68279;Laerm;55108;51.790;10.960;2023-02-12T00:43:24;35.41;27.50;51.58;;
68279;Laerm;55108;51.790;10.960;2023-02-12T00:45:49;59.46;28.08;76.65;;
68279;Laerm;55108;51.790;10.960;2023-02-12T00:48:15;32.78;27.43;49.51;;
68279;Laerm;55108;51.790;10.960;2023-02-12T00:50:40;32.26;26.92;41.90;;
68279;Laerm;55108;51.790;10.960;2023-02-12T00:53:08;31.68;27.23;45.82;;
68279;Laerm;55108;51.790;10.960;2023-02-12T00:55:34;31.97;27.15;42.95;;
68279;Laerm;55108;51.790;10.960;2023-02-12T00:57:59;56.13;28.53;75.14;;
68279;Laerm;55108;51.790;10.960;2023-02-12T01:00:24;32.38;27.54;49.53;;
68279;Laerm;55108;51.790;10.960;2023-02-12T01:02:49;28.57;26.69;36.68;;
68279;Laerm;55108;51.790;10.960;2023-02-12T01:05:15;56.12;27.33;73.24;;
68279;Laerm;55108;51.790;10.960;2023-02-12T01:07:40;33.32;27.07;48.66;;
68279;Laerm;55108;51.790;10.960;2023-02-12T01:10:05;29.45;26.32;46.01;;
68279;Laerm;55108;51.790;10.960;2023-02-12T01:12:31;29.22;27.09;32.99;;
68279;Laerm;55108;51.790;10.960;2023-02-12T01:14:56;29.60;27.30;34.51;;
68279;Laerm;55108;51.790;10.960;2023-02-12T01:17:21;34.21;28.31;53.58;;
68279;Laerm;55108;51.790;10.960;2023-02-12T01:19:46;39.20;28.65;60.28;;
68279;Laerm;55108;51.790;10.960;2023-02-12T01:22:11;36.66;29.31;52.28;;
68279;Laerm;55108;51.790;10.960;2023-02-12T01:24:37;34.45;29.18;43.94;;
68279;Laerm;55108;51.790;10.960;2023-02-12T01:27:02;31.80;27.41;44.83;;
68279;Laerm;55108;51.790;10.960;2023-02-12T01:29:27;46.39;28.32;60.52;;
68279;Laerm;55108;51.790;10.960;2023-02-12T01:31:52;33.26;27.40;52.66;;
68279;Laerm;55108;51.790;10.960;2023-02-12T01:34:17;30.00;26.78;52.01;;
68279;Laerm;55108;51.790;10.960;2023-02-12T01:36:42;31.35;26.62;43.21;;
68279;Laerm;55108;51.790;10.960;2023-02-12T01:39:09;28.67;26.45;43.90;;
68279;Laerm;55108;51.790;10.960;2023-02-12T01:41:35;31.54;26.30;43.41;;
68279;Laerm;55108;51.790;10.960;2023-02-12T01:46:29;32.76;26.38;51.44;;
68279;Laerm;55108;51.790;10.960;2023-02-12T01:48:54;35.05;26.95;60.23;;
68279;Laerm;55108;51.790;10.960;2023-02-12T01:51:19;52.47;27.22;68.65;;
68279;Laerm;55108;51.790;10.960;2023-02-12T01:53:47;33.24;26.79;45.21;;
68279;Laerm;55108;51.790;10.960;2023-02-12T01:56:14;58.74;26.18;78.37;;
68279;Laerm;55108;51.790;10.960;2023-02-12T01:58:40;57.10;27.37;75.85;;
68279;Laerm;55108;51.790;10.960;2023-02-12T02:01:07;30.83;26.47;37.41;;
68279;Laerm;55108;51.790;10.960;2023-02-12T02:03:33;34.50;27.33;44.11;;
68279;Laerm;55108;51.790;10.960;2023-02-12T02:06:00;29.53;26.76;38.44;;
68279;Laerm;55108;51.790;10.960;2023-02-12T02:08:28;54.81;26.50;73.81;;
68279;Laerm;55108;51.790;10.960;2023-02-12T02:10:53;28.40;26.52;33.45;;
68279;Laerm;55108;51.790;10.960;2023-02-12T02:13:19;28.25;26.27;41.74;;
68279;Laerm;55108;51.790;10.960;2023-02-12T02:16:12;30.25;26.25;44.42;;
68279;Laerm;55108;51.790;10.960;2023-02-12T02:19:00;31.11;26.96;37.16;;
68279;Laerm;55108;51.790;10.960;2023-02-12T02:24:02;33.36;27.44;49.29;;
68279;Laerm;55108;51.790;10.960;2023-02-12T02:34:19;55.90;28.16;73.64;;
68279;Laerm;55108;51.790;10.960;2023-02-12T02:37:07;50.29;26.40;68.67;;
68279;Laerm;55108;51.790;10.960;2023-02-12T02:39:39;56.62;26.90;76.91;;
68279;Laerm;55108;51.790;10.960;2023-02-12T02:42:10;30.82;26.78;47.51;;
68279;Laerm;55108;51.790;10.960;2023-02-12T02:44:41;55.64;26.78;73.20;;
68279;Laerm;55108;51.790;10.960;2023-02-12T02:47:08;62.10;27.54;81.25;;
68279;Laerm;55108;51.790;10.960;2023-02-12T02:49:39;32.99;26.53;44.16;;
68279;Laerm;55108;51.790;10.960;2023-02-12T02:52:06;31.91;27.36;46.69;;
68279;Laerm;55108;51.790;10.960;2023-02-12T02:54:37;30.17;27.36;44.86;;
68279;Laerm;55108;51.790;10.960;2023-02-12T02:57:09;33.57;27.19;46.57;;
68279;Laerm;55108;51.790;10.960;2023-02-12T02:59:39;29.74;27.19;36.48;;
68279;Laerm;55108;51.790;10.960;2023-02-12T03:05:00;53.37;27.49;71.91;;
68279;Laerm;55108;51.790;10.960;2023-02-12T03:07:31;52.55;27.89;70.16;;
68279;Laerm;55108;51.790;10.960;2023-02-12T03:10:03;30.85;27.58;43.12;;
68279;Laerm;55108;51.790;10.960;2023-02-12T03:12:32;29.42;26.37;41.10;;
68279;Laerm;55108;51.790;10.960;2023-02-12T03:15:06;35.92;26.98;59.44;;
68279;Laerm;55108;51.790;10.960;2023-02-12T03:17:40;53.63;26.53;71.48;;
68279;Laerm;55108;51.790;10.960;2023-02-12T03:20:09;32.09;26.32;45.45;;
68279;Laerm;55108;51.790;10.960;2023-02-12T03:22:37;29.48;26.95;45.34;;
68279;Laerm;55108;51.790;10.960;2023-02-12T03:25:14;28.86;26.50;40.78;;
68279;Laerm;55108;51.790;10.960;2023-02-12T03:27:44;31.28;26.74;48.03;;
68279;Laerm;55108;51.790;10.960;2023-02-12T03:30:11;29.45;26.39;36.48;;
68279;Laerm;55108;51.790;10.960;2023-02-12T03:35:15;31.53;26.55;52.60;;
68279;Laerm;55108;51.790;10.960;2023-02-12T03:40:17;55.74;27.74;73.65;;
68279;Laerm;55108;51.790;10.960;2023-02-12T03:42:52;30.51;27.01;38.37;;
68279;Laerm;55108;51.790;10.960;2023-02-12T03:45:24;32.18;27.58;47.55;;
68279;Laerm;55108;51.790;10.960;2023-02-12T03:50:26;56.51;27.51;75.88;;
68279;Laerm;55108;51.790;10.960;2023-02-12T03:52:54;30.60;27.08;36.26;;
68279;Laerm;55108;51.790;10.960;2023-02-12T03:55:19;28.29;26.62;36.72;;
68279;Laerm;55108;51.790;10.960;2023-02-12T03:57:46;55.40;26.67;72.89;;
68279;Laerm;55108;51.790;10.960;2023-02-12T04:00:17;28.27;26.52;30.92;;
68279;Laerm;55108;51.790;10.960;2023-02-12T04:02:43;30.15;27.25;35.98;;
68279;Laerm;55108;51.790;10.960;2023-02-12T04:05:19;57.92;29.17;75.76;;
68279;Laerm;55108;51.790;10.960;2023-02-12T04:07:45;33.06;28.29;42.75;;
68279;Laerm;55108;51.790;10.960;2023-02-12T04:10:10;30.92;26.44;38.02;;
68279;Laerm;55108;51.790;10.960;2023-02-12T04:12:42;30.57;26.53;38.06;;
68279;Laerm;55108;51.790;10.960;2023-02-12T04:20:24;32.81;27.86;42.71;;
68279;Laerm;55108;51.790;10.960;2023-02-12T04:22:53;54.58;30.79;72.44;;
68279;Laerm;55108;51.790;10.960;2023-02-12T04:30:58;52.61;28.95;68.22;;
68279;Laerm;55108;51.790;10.960;2023-02-12T04:33:25;53.72;28.67;70.17;;
68279;Laerm;55108;51.790;10.960;2023-02-12T04:35:59;55.84;27.41;74.82;;
68279;Laerm;55108;51.790;10.960;2023-02-12T04:38:27;56.08;28.07;74.85;;
68279;Laerm;55108;51.790;10.960;2023-02-12T04:40:54;59.75;27.76;76.26;;
68279;Laerm;55108;51.790;10.960;2023-02-12T04:43:25;57.29;27.88;74.39;;
68279;Laerm;55108;51.790;10.960;2023-02-12T04:45:50;63.45;27.99;81.84;;
68279;Laerm;55108;51.790;10.960;2023-02-12T04:48:15;38.00;27.32;50.57;;
68279;Laerm;55108;51.790;10.960;2023-02-12T04:50:41;54.86;27.43;73.38;;
68279;Laerm;55108;51.790;10.960;2023-02-12T04:53:07;48.96;27.46;67.00;;
68279;Laerm;55108;51.790;10.960;2023-02-12T04:55:32;55.79;27.02;72.84;;
68279;Laerm;55108;51.790;10.960;2023-02-12T04:57:57;28.96;26.15;35.86;;
68279;Laerm;55108;51.790;10.960;2023-02-12T05:00:22;57.91;27.02;75.68;;
68279;Laerm;55108;51.790;10.960;2023-02-12T05:02:47;33.18;27.41;43.34;;
68279;Laerm;55108;51.790;10.960;2023-02-12T05:05:13;31.69;26.91;47.85;;
68279;Laerm;55108;51.790;10.960;2023-02-12T05:07:38;56.84;27.36;75.86;;
68279;Laerm;55108;51.790;10.960;2023-02-12T05:10:03;55.53;27.91;70.17;;
68279;Laerm;55108;51.790;10.960;2023-02-12T05:12:28;54.34;28.01;69.30;;
68279;Laerm;55108;51.790;10.960;2023-02-12T05:14:53;56.33;27.74;73.03;;
68279;Laerm;55108;51.790;10.960;2023-02-12T05:17:20;60.19;30.71;76.53;;
68279;Laerm;55108;51.790;10.960;2023-02-12T05:19:46;56.73;28.84;72.24;;
68279;Laerm;55108;51.790;10.960;2023-02-12T05:22:11;50.93;28.31;66.83;;
68279;Laerm;55108;51.790;10.960;2023-02-12T05:24:36;59.44;30.94;73.35;;
68279;Laerm;55108;51.790;10.960;2023-02-12T05:27:01;57.13;30.20;72.71;;
68279;Laerm;55108;51.790;10.960;2023-02-12T05:29:27;49.56;30.70;71.06;;
68279;Laerm;55108;51.790;10.960;2023-02-12T05:31:52;61.82;29.11;77.02;;
68279;Laerm;55108;51.790;10.960;2023-02-12T05:34:17;59.29;28.45;79.16;;
68279;Laerm;55108;51.790;10.960;2023-02-12T05:36:42;57.26;29.92;72.65;;
68279;Laerm;55108;51.790;10.960;2023-02-12T05:39:07;55.15;29.49;72.61;;
68279;Laerm;55108;51.790;10.960;2023-02-12T05:41:32;62.36;30.67;77.58;;
68279;Laerm;55108;51.790;10.960;2023-02-12T05:44:01;63.99;31.57;83.11;;
68279;Laerm;55108;51.790;10.960;2023-02-12T05:46:26;56.18;30.03;70.50;;
68279;Laerm;55108;51.790;10.960;2023-02-12T05:48:51;35.50;28.49;50.62;;
68279;Laerm;55108;51.790;10.960;2023-02-12T05:51:23;32.10;27.89;50.57;;
68279;Laerm;55108;51.790;10.960;2023-02-12T05:53:50;34.80;28.70;42.64;;
68279;Laerm;55108;51.790;10.960;2023-02-12T05:56:16;57.83;30.49;74.87;;
68279;Laerm;55108;51.790;10.960;2023-02-12T05:58:43;59.94;28.39;75.81;;
68279;Laerm;55108;51.790;10.960;2023-02-12T06:01:10;53.06;29.44;70.98;;
68279;Laerm;55108;51.790;10.960;2023-02-12T06:03:36;59.73;31.13;75.17;;
68279;Laerm;55108;51.790;10.960;2023-02-12T06:06:01;64.57;30.89;77.56;;
68279;Laerm;55108;51.790;10.960;2023-02-12T06:08:26;33.33;28.27;53.84;;
68279;Laerm;55108;51.790;10.960;2023-02-12T06:10:51;35.55;28.52;56.70;;
68279;Laerm;55108;51.790;10.960;2023-02-12T06:13:16;60.82;30.62;75.88;;
68279;Laerm;55108;51.790;10.960;2023-02-12T06:15:41;33.39;29.37;49.14;;
68279;Laerm;55108;51.790;10.960;2023-02-12T06:18:07;59.41;31.91;79.63;;
68279;Laerm;55108;51.790;10.960;2023-02-12T06:20:32;61.54;30.22;81.27;;
68279;Laerm;55108;51.790;10.960;2023-02-12T06:22:57;55.69;30.20;73.61;;
68279;Laerm;55108;51.790;10.960;2023-02-12T06:25:22;62.12;31.63;78.97;;
68279;Laerm;55108;51.790;10.960;2023-02-12T06:27:47;60.71;34.50;75.80;;
68279;Laerm;55108;51.790;10.960;2023-02-12T06:30:12;62.63;31.44;81.10;;
68279;Laerm;55108;51.790;10.960;2023-02-12T06:32:38;61.15;31.91;74.19;;
68279;Laerm;55108;51.790;10.960;2023-02-12T06:35:03;56.65;32.48;70.45;;
68279;Laerm;55108;51.790;10.960;2023-02-12T06:37:28;61.63;31.06;76.10;;
68279;Laerm;55108;51.790;10.960;2023-02-12T06:39:53;40.53;30.67;55.81;;
68279;Laerm;55108;51.790;10.960;2023-02-12T06:42:18;58.02;31.17;72.76;;
68279;Laerm;55108;51.790;10.960;2023-02-12T06:44:44;63.43;32.57;83.35;;
68279;Laerm;55108;51.790;10.960;2023-02-12T06:47:10;62.27;31.23;78.35;;
68279;Laerm;55108;51.790;10.960;2023-02-12T06:49:35;57.23;31.68;73.18;;
68279;Laerm;55108;51.790;10.960;2023-02-12T06:52:00;62.02;33.62;75.25;;
68279;Laerm;55108;51.790;10.960;2023-02-12T06:54:25;62.80;32.29;76.77;;
68279;Laerm;55108;51.790;10.960;2023-02-12T06:56:50;37.90;29.12;51.28;;
68279;Laerm;55108;51.790;10.960;2023-02-12T06:59:16;61.34;30.22;76.00;;
68279;Laerm;55108;51.790;10.960;2023-02-12T07:01:41;58.99;31.44;74.34;;
68279;Laerm;55108;51.790;10.960;2023-02-12T07:04:07;62.78;32.85;75.63;;
68279;Laerm;55108;51.790;10.960;2023-02-12T07:06:32;65.18;37.50;77.14;;
68279;Laerm;55108;51.790;10.960;2023-02-12T07:08:58;62.07;32.09;76.84;;
68279;Laerm;55108;51.790;10.960;2023-02-12T07:11:27;65.83;30.68;79.54;;
68279;Laerm;55108;51.790;10.960;2023-02-12T07:13:52;48.63;31.50;66.92;;
68279;Laerm;55108;51.790;10.960;2023-02-12T07:16:18;65.39;37.55;82.54;;
68279;Laerm;55108;51.790;10.960;2023-02-12T07:18:43;64.36;37.44;77.87;;
68279;Laerm;55108;51.790;10.960;2023-02-12T07:21:09;63.40;31.93;76.83;;
68279;Laerm;55108;51.790;10.960;2023-02-12T07:23:35;63.64;33.78;78.72;;
68279;Laerm;55108;51.790;10.960;2023-02-12T07:26:01;64.62;36.49;81.81;;
68279;Laerm;55108;51.790;10.960;2023-02-12T07:28:27;62.93;33.78;77.35;;
68279;Laerm;55108;51.790;10.960;2023-02-12T07:30:52;63.52;34.78;77.58;;
68279;Laerm;55108;51.790;10.960;2023-02-12T07:33:18;60.60;33.71;76.76;;
68279;Laerm;55108;51.790;10.960;2023-02-12T07:35:43;62.71;33.38;74.02;;
68279;Laerm;55108;51.790;10.960;2023-02-12T07:38:08;63.50;38.20;78.94;;
68279;Laerm;55108;51.790;10.960;2023-02-12T07:40:33;63.81;34.99;76.14;;
68279;Laerm;55108;51.790;10.960;2023-02-12T07:42:58;64.85;38.69;78.07;;
68279;Laerm;55108;51.790;10.960;2023-02-12T07:45:24;62.92;32.75;78.82;;
68279;Laerm;55108;51.790;10.960;2023-02-12T07:47:49;56.83;30.20;73.62;;
68279;Laerm;55108;51.790;10.960;2023-02-12T07:50:14;62.64;36.00;78.73;;
68279;Laerm;55108;51.790;10.960;2023-02-12T07:52:39;64.52;34.83;77.01;;
68279;Laerm;55108;51.790;10.960;2023-02-12T07:55:04;66.06;35.81;79.50;;
68279;Laerm;55108;51.790;10.960;2023-02-12T07:57:30;62.62;35.17;77.94;;
68279;Laerm;55108;51.790;10.960;2023-02-12T07:59:55;64.65;33.81;79.01;;
68279;Laerm;55108;51.790;10.960;2023-02-12T08:02:20;64.40;32.75;81.18;;
68279;Laerm;55108;51.790;10.960;2023-02-12T08:04:45;63.03;38.68;76.30;;
68279;Laerm;55108;51.790;10.960;2023-02-12T08:07:10;63.95;35.35;77.92;;
68279;Laerm;55108;51.790;10.960;2023-02-12T08:09:35;57.02;33.71;70.90;;
68279;Laerm;55108;51.790;10.960;2023-02-12T08:12:00;63.17;33.98;79.29;;
68279;Laerm;55108;51.790;10.960;2023-02-12T08:14:26;62.16;33.09;74.38;;
68279;Laerm;55108;51.790;10.960;2023-02-12T08:16:51;64.34;36.25;77.54;;
68279;Laerm;55108;51.790;10.960;2023-02-12T08:19:16;61.90;36.26;75.22;;
68279;Laerm;55108;51.790;10.960;2023-02-12T08:21:41;66.23;38.68;78.17;;
68279;Laerm;55108;51.790;10.960;2023-02-12T08:24:08;63.75;38.27;74.81;;
68279;Laerm;55108;51.790;10.960;2023-02-12T08:26:35;64.01;41.07;77.76;;
68279;Laerm;55108;51.790;10.960;2023-02-12T08:29:02;63.34;35.56;76.27;;
68279;Laerm;55108;51.790;10.960;2023-02-12T08:31:28;66.16;38.01;78.78;;
68279;Laerm;55108;51.790;10.960;2023-02-12T08:33:54;66.12;37.76;76.57;;
68279;Laerm;55108;51.790;10.960;2023-02-12T08:36:24;64.19;36.31;77.70;;
68279;Laerm;55108;51.790;10.960;2023-02-12T08:38:50;64.92;36.06;76.51;;
68279;Laerm;55108;51.790;10.960;2023-02-12T08:41:17;63.12;39.93;75.81;;
68279;Laerm;55108;51.790;10.960;2023-02-12T08:43:44;66.15;39.11;79.11;;
68279;Laerm;55108;51.790;10.960;2023-02-12T08:46:14;66.72;42.48;77.67;;
68279;Laerm;55108;51.790;10.960;2023-02-12T08:48:40;63.89;38.36;76.11;;
68279;Laerm;55108;51.790;10.960;2023-02-12T08:51:07;67.11;41.21;89.31;;
68279;Laerm;55108;51.790;10.960;2023-02-12T08:53:33;68.03;41.97;78.78;;
68279;Laerm;55108;51.790;10.960;2023-02-12T08:55:58;65.22;37.54;76.17;;
68279;Laerm;55108;51.790;10.960;2023-02-12T08:58:23;63.03;35.62;78.36;;
68279;Laerm;55108;51.790;10.960;2023-02-12T09:00:48;63.92;33.15;76.03;;
68279;Laerm;55108;51.790;10.960;2023-02-12T09:03:14;66.11;43.05;76.58;;
68279;Laerm;55108;51.790;10.960;2023-02-12T09:05:39;65.08;39.04;77.53;;
68279;Laerm;55108;51.790;10.960;2023-02-12T09:08:05;65.14;39.72;78.78;;
68279;Laerm;55108;51.790;10.960;2023-02-12T09:10:30;64.39;36.70;75.71;;
68279;Laerm;55108;51.790;10.960;2023-02-12T09:12:55;69.36;41.36;80.67;;
68279;Laerm;55108;51.790;10.960;2023-02-12T09:15:20;64.38;47.53;76.09;;
68279;Laerm;55108;51.790;10.960;2023-02-12T09:17:45;69.31;52.69;78.89;;
68279;Laerm;55108;51.790;10.960;2023-02-12T09:20:10;66.90;44.25;78.04;;
68279;Laerm;55108;51.790;10.960;2023-02-12T09:22:36;66.53;36.71;77.51;;
68279;Laerm;55108;51.790;10.960;2023-02-12T09:25:03;67.79;43.33;80.07;;
68279;Laerm;55108;51.790;10.960;2023-02-12T09:27:28;67.72;42.18;81.23;;
68279;Laerm;55108;51.790;10.960;2023-02-12T09:29:53;65.66;38.49;79.17;;
68279;Laerm;55108;51.790;10.960;2023-02-12T09:32:18;67.21;44.85;78.51;;
68279;Laerm;55108;51.790;10.960;2023-02-12T09:34:43;63.97;37.99;76.52;;
68279;Laerm;55108;51.790;10.960;2023-02-12T09:37:09;63.99;38.39;76.02;;
68279;Laerm;55108;51.790;10.960;2023-02-12T09:39:34;64.69;41.37;77.66;;
68279;Laerm;55108;51.790;10.960;2023-02-12T09:44:26;65.54;37.37;76.31;;
68279;Laerm;55108;51.790;10.960;2023-02-12T09:52:18;66.12;43.93;80.98;;
68279;Laerm;55108;51.790;10.960;2023-02-12T09:54:44;65.14;37.52;77.51;;
68279;Laerm;55108;51.790;10.960;2023-02-12T09:57:20;68.72;49.05;80.47;;
68279;Laerm;55108;51.790;10.960;2023-02-12T09:59:50;65.46;40.00;84.27;;
68279;Laerm;55108;51.790;10.960;2023-02-12T10:02:17;62.81;33.89;79.19;;
68279;Laerm;55108;51.790;10.960;2023-02-12T10:04:43;65.91;37.26;85.31;;
68279;Laerm;55108;51.790;10.960;2023-02-12T10:09:44;63.32;35.87;76.15;;
68279;Laerm;55108;51.790;10.960;2023-02-12T10:12:15;66.93;40.23;77.47;;
68279;Laerm;55108;51.790;10.960;2023-02-12T10:14:51;64.79;43.64;74.42;;
68279;Laerm;55108;51.790;10.960;2023-02-12T10:17:44;66.70;41.73;79.55;;
68279;Laerm;55108;51.790;10.960;2023-02-12T10:23:10;67.41;40.70;77.93;;
68279;Laerm;55108;51.790;10.960;2023-02-12T10:25:43;65.84;40.84;78.45;;
68279;Laerm;55108;51.790;10.960;2023-02-12T10:28:12;66.88;35.59;89.39;;
68279;Laerm;55108;51.790;10.960;2023-02-12T10:30:56;66.65;35.48;77.84;;
68279;Laerm;55108;51.790;10.960;2023-02-12T10:33:30;65.89;40.48;78.90;;
68279;Laerm;55108;51.790;10.960;2023-02-12T10:36:01;66.09;42.87;78.40;;
68279;Laerm;55108;51.790;10.960;2023-02-12T10:38:30;65.84;36.11;76.49;;
68279;Laerm;55108;51.790;10.960;2023-02-12T10:40:56;68.41;50.49;79.55;;
68279;Laerm;55108;51.790;10.960;2023-02-12T10:43:25;65.64;35.91;76.77;;
68279;Laerm;55108;51.790;10.960;2023-02-12T10:45:51;68.29;39.62;79.81;;
68279;Laerm;55108;51.790;10.960;2023-02-12T10:48:20;66.72;44.25;78.17;;
68279;Laerm;55108;51.790;10.960;2023-02-12T10:53:33;66.32;34.75;78.06;;
68279;Laerm;55108;51.790;10.960;2023-02-12T10:58:40;67.69;40.87;83.42;;
68279;Laerm;55108;51.790;10.960;2023-02-12T11:01:13;67.25;43.94;78.55;;
68279;Laerm;55108;51.790;10.960;2023-02-12T11:03:40;64.57;36.39;78.74;;
68279;Laerm;55108;51.790;10.960;2023-02-12T11:06:16;60.65;33.35;74.26;;
68279;Laerm;55108;51.790;10.960;2023-02-12T11:08:42;66.47;39.98;80.68;;
68279;Laerm;55108;51.790;10.960;2023-02-12T11:11:09;64.53;37.99;77.89;;
68279;Laerm;55108;51.790;10.960;2023-02-12T11:13:35;62.50;35.93;77.71;;
68279;Laerm;55108;51.790;10.960;2023-02-12T11:16:01;65.23;35.53;83.15;;
68279;Laerm;55108;51.790;10.960;2023-02-12T11:18:28;67.88;44.88;82.98;;
68279;Laerm;55108;51.790;10.960;2023-02-12T11:20:58;66.83;41.52;77.24;;
68279;Laerm;55108;51.790;10.960;2023-02-12T11:23:34;63.84;37.32;76.68;;
68279;Laerm;55108;51.790;10.960;2023-02-12T11:26:02;67.16;36.98;78.82;;
68279;Laerm;55108;51.790;10.960;2023-02-12T11:28:28;66.88;42.69;79.48;;
68279;Laerm;55108;51.790;10.960;2023-02-12T11:31:00;66.35;39.18;77.52;;
68279;Laerm;55108;51.790;10.960;2023-02-12T11:33:33;65.51;40.38;78.04;;
68279;Laerm;55108;51.790;10.960;2023-02-12T11:36:03;64.95;33.78;78.27;;
68279;Laerm;55108;51.790;10.960;2023-02-12T11:38:31;65.42;35.03;77.58;;
68279;Laerm;55108;51.790;10.960;2023-02-12T11:41:19;64.34;34.40;76.35;;
68279;Laerm;55108;51.790;10.960;2023-02-12T11:43:45;64.57;37.64;77.53;;
68279;Laerm;55108;51.790;10.960;2023-02-12T11:46:10;62.55;36.98;75.79;;
68279;Laerm;55108;51.790;10.960;2023-02-12T11:48:43;66.73;40.69;78.64;;
68279;Laerm;55108;51.790;10.960;2023-02-12T11:51:16;63.44;34.14;74.78;;
68279;Laerm;55108;51.790;10.960;2023-02-12T11:53:42;61.86;39.91;75.22;;
68279;Laerm;55108;51.790;10.960;2023-02-12T11:56:11;65.49;41.06;76.21;;
68279;Laerm;55108;51.790;10.960;2023-02-12T11:58:37;64.04;41.61;77.97;;
68279;Laerm;55108;51.790;10.960;2023-02-12T12:03:29;65.39;42.58;76.88;;
68279;Laerm;55108;51.790;10.960;2023-02-12T12:06:00;63.70;34.17;74.12;;
68279;Laerm;55108;51.790;10.960;2023-02-12T12:08:28;63.50;37.19;75.57;;
68279;Laerm;55108;51.790;10.960;2023-02-12T12:13:32;66.16;41.67;77.28;;
68279;Laerm;55108;51.790;10.960;2023-02-12T12:16:10;67.44;38.57;87.82;;
68279;Laerm;55108;51.790;10.960;2023-02-12T12:18:57;65.78;36.03;85.69;;
68279;Laerm;55108;51.790;10.960;2023-02-12T12:24:30;64.82;33.01;76.81;;
68279;Laerm;55108;51.790;10.960;2023-02-12T12:26:59;63.43;36.97;76.78;;
68279;Laerm;55108;51.790;10.960;2023-02-12T12:29:50;64.78;37.73;76.78;;
68279;Laerm;55108;51.790;10.960;2023-02-12T12:32:16;65.56;38.26;78.52;;
68279;Laerm;55108;51.790;10.960;2023-02-12T12:34:42;66.28;34.43;79.69;;
68279;Laerm;55108;51.790;10.960;2023-02-12T12:39:52;63.81;33.87;76.33;;
68279;Laerm;55108;51.790;10.960;2023-02-12T12:53:14;64.41;37.09;76.02;;
68279;Laerm;55108;51.790;10.960;2023-02-12T12:55:49;64.85;37.25;77.66;;
68279;Laerm;55108;51.790;10.960;2023-02-12T13:03:23;62.16;35.78;74.20;;
68279;Laerm;55108;51.790;10.960;2023-02-12T13:05:57;63.96;37.98;76.91;;
68279;Laerm;55108;51.790;10.960;2023-02-12T13:10:56;60.57;35.39;72.45;;
68279;Laerm;55108;51.790;10.960;2023-02-12T13:13:25;65.44;45.13;77.28;;
68279;Laerm;55108;51.790;10.960;2023-02-12T13:20:55;64.70;44.17;75.31;;
68279;Laerm;55108;51.790;10.960;2023-02-12T13:23:41;64.21;41.53;75.87;;
68279;Laerm;55108;51.790;10.960;2023-02-12T13:26:32;68.25;49.43;80.31;;
68279;Laerm;55108;51.790;10.960;2023-02-12T13:29:04;64.88;39.46;77.56;;
68279;Laerm;55108;51.790;10.960;2023-02-12T13:31:32;66.65;42.50;78.77;;
68279;Laerm;55108;51.790;10.960;2023-02-12T13:34:03;64.65;43.79;77.23;;
68279;Laerm;55108;51.790;10.960;2023-02-12T13:36:31;64.90;39.33;77.06;;
68279;Laerm;55108;51.790;10.960;2023-02-12T13:41:32;64.62;39.07;76.93;;
68279;Laerm;55108;51.790;10.960;2023-02-12T13:44:15;64.00;40.26;75.34;;
68279;Laerm;55108;51.790;10.960;2023-02-12T13:46:49;66.00;46.58;77.84;;
68279;Laerm;55108;51.790;10.960;2023-02-12T13:49:33;64.54;40.33;74.88;;
68279;Laerm;55108;51.790;10.960;2023-02-12T13:57:12;65.90;37.48;78.20;;
68279;Laerm;55108;51.790;10.960;2023-02-12T13:59:48;66.84;46.19;77.34;;
68279;Laerm;55108;51.790;10.960;2023-02-12T14:04:58;63.21;35.68;75.32;;
68279;Laerm;55108;51.790;10.960;2023-02-12T14:07:24;64.55;36.48;74.88;;
68279;Laerm;55108;51.790;10.960;2023-02-12T14:10:04;62.55;39.91;75.35;;
68279;Laerm;55108;51.790;10.960;2023-02-12T14:12:31;67.63;39.42;78.42;;
68279;Laerm;55108;51.790;10.960;2023-02-12T14:15:18;67.20;41.87;79.13;;
68279;Laerm;55108;51.790;10.960;2023-02-12T14:17:52;64.06;41.93;76.86;;
68279;Laerm;55108;51.790;10.960;2023-02-12T14:20:28;62.46;36.07;72.72;;
68279;Laerm;55108;51.790;10.960;2023-02-12T14:25:37;63.97;37.37;75.39;;
68279;Laerm;55108;51.790;10.960;2023-02-12T14:30:38;65.54;39.17;80.25;;
68279;Laerm;55108;51.790;10.960;2023-02-12T14:35:35;63.04;37.98;77.10;;
68279;Laerm;55108;51.790;10.960;2023-02-12T14:38:01;63.15;37.55;74.72;;
68279;Laerm;55108;51.790;10.960;2023-02-12T14:40:36;64.81;39.98;76.56;;
68279;Laerm;55108;51.790;10.960;2023-02-12T14:45:48;64.26;41.66;76.40;;
68279;Laerm;55108;51.790;10.960;2023-02-12T14:48:37;66.41;40.39;78.77;;
68279;Laerm;55108;51.790;10.960;2023-02-12T14:50:58;63.85;35.14;75.56;;
68279;Laerm;55108;51.790;10.960;2023-02-12T14:53:30;65.68;36.62;78.84;;
68279;Laerm;55108;51.790;10.960;2023-02-12T14:55:56;67.70;44.93;86.36;;
68279;Laerm;55108;51.790;10.960;2023-02-12T14:58:23;65.72;37.43;78.74;;
68279;Laerm;55108;51.790;10.960;2023-02-12T15:00:50;62.78;37.84;74.96;;
68279;Laerm;55108;51.790;10.960;2023-02-12T15:03:24;62.80;36.13;74.78;;
68279;Laerm;55108;51.790;10.960;2023-02-12T15:06:02;65.27;37.75;78.03;;
68279;Laerm;55108;51.790;10.960;2023-02-12T15:08:34;63.80;38.43;75.63;;
68279;Laerm;55108;51.790;10.960;2023-02-12T15:11:03;66.57;46.55;75.26;;
68279;Laerm;55108;51.790;10.960;2023-02-12T15:16:26;63.83;38.00;75.96;;
68279;Laerm;55108;51.790;10.960;2023-02-12T15:18:55;66.92;42.03;77.06;;
68279;Laerm;55108;51.790;10.960;2023-02-12T15:21:23;67.37;42.94;80.34;;
68279;Laerm;55108;51.790;10.960;2023-02-12T15:24:03;66.36;37.04;79.74;;
68279;Laerm;55108;51.790;10.960;2023-02-12T15:26:30;65.48;37.42;77.35;;
68279;Laerm;55108;51.790;10.960;2023-02-12T15:28:57;64.91;38.08;76.03;;